Bude — V7XL2 — position and weather

sailwx.info

Track history (hours):
 
Tides and Currents Weather Stations Pressure Air Temp Water Temp Dewpoint Dewpoint Depression Visibility Wind Speed Wind Dir Waves Ship Positions

Bude

Last reported at 2015-Jan-28 11:21 UTC. Time now 2015-Jan-28 18:13 UTC.
Position N 40°56' E 001°45'.

Length 119 m; draft 4.3 m.

Type: Cargo ship. MMSI: 538004506.

Date/timePositionNaut miles runAvg speedWind from/ knotsBaromVisibWave heightAir tempDewpointWater temp
2015-Jan-28 11:21N 40°56' E 001°45'8 9.6
2015-Jan-28 10:33N 40°48' E 001°46'9 9.4
2015-Jan-28 09:33N 40°39' E 001°48'9 9.0
2015-Jan-28 08:33N 40°30' E 001°50'9 9.0
2015-Jan-28 07:33N 40°21' E 001°51'9 8.9
2015-Jan-28 06:33N 40°12' E 001°53'9 8.6
2015-Jan-28 05:33N 40°04' E 001°53'9 8.8
2015-Jan-28 04:33N 39°55' E 001°55'9 8.8
2015-Jan-28 03:33N 39°46' E 001°56'8 8.3
2015-Jan-28 02:33N 39°38' E 001°58'8 7.9
2015-Jan-28 01:33N 39°31' E 002°03'8 8.4
2015-Jan-28 00:33N 39°26' E 002°12'9 9.5
2015-Jan-27 23:33N 39°21' E 002°22'1010.0
2015-Jan-27 22:33N 39°15' E 002°32'1110.8
2015-Jan-27 21:33N 39°09' E 002°44'1110.7
2015-Jan-27 20:33N 39°03' E 002°55'1010.5
2015-Jan-27 19:33N 38°57' E 003°06'10 9.9
2015-Jan-27 18:33N 38°51' E 003°16'  
Track history (hours):
 
Tides and Currents Weather Stations Pressure Air Temp Water Temp Dewpoint Dewpoint Depression Visibility Wind Speed Wind Dir Waves Ship Positions

Bude

Last reported at 2015-Jan-28 11:21 UTC. Time now 2015-Jan-28 18:13 UTC.
Position N 40°56' E 001°45'.

Length 119 m; draft 4.3 m.

Type: Cargo ship. MMSI: 538004506.

Date/timePositionNaut miles runAvg speedWind from/ knotsBaromVisibWave heightAir tempDewpointWater temp
2015-Jan-28 11:21N 40°56' E 001°45'8 9.6
2015-Jan-28 10:33N 40°48' E 001°46'9 9.4
2015-Jan-28 09:33N 40°39' E 001°48'9 9.0
2015-Jan-28 08:33N 40°30' E 001°50'9 9.0
2015-Jan-28 07:33N 40°21' E 001°51'9 8.9
2015-Jan-28 06:33N 40°12' E 001°53'9 8.6
2015-Jan-28 05:33N 40°04' E 001°53'9 8.8
2015-Jan-28 04:33N 39°55' E 001°55'9 8.8
2015-Jan-28 03:33N 39°46' E 001°56'8 8.3
2015-Jan-28 02:33N 39°38' E 001°58'8 7.9
2015-Jan-28 01:33N 39°31' E 002°03'8 8.4
2015-Jan-28 00:33N 39°26' E 002°12'9 9.5
2015-Jan-27 23:33N 39°21' E 002°22'1010.0
2015-Jan-27 22:33N 39°15' E 002°32'1110.8
2015-Jan-27 21:33N 39°09' E 002°44'1110.7
2015-Jan-27 20:33N 39°03' E 002°55'1010.5
2015-Jan-27 19:33N 38°57' E 003°06'10 9.9
2015-Jan-27 18:33N 38°51' E 003°16'  

Dump ship's entire track history